sensor_id;sensor_type;location;lat;lon;timestamp;temperature;humidity
1878;DHT22;939;51.426;6.972;2024-01-10T02:55:04;-1.40;59.20
1878;DHT22;939;51.426;6.972;2024-01-10T02:57:32;-1.40;60.30
1878;DHT22;939;51.426;6.972;2024-01-10T02:59:58;-1.40;59.40
1878;DHT22;939;51.426;6.972;2024-01-10T03:02:25;-1.40;60.30
1878;DHT22;939;51.426;6.972;2024-01-10T03:04:52;-1.50;59.50
1878;DHT22;939;51.426;6.972;2024-01-10T03:07:19;-1.50;60.10
1878;DHT22;939;51.426;6.972;2024-01-10T03:09:46;-1.50;61.30
1878;DHT22;939;51.426;6.972;2024-01-10T03:12:14;-1.50;61.50
1878;DHT22;939;51.426;6.972;2024-01-10T03:14:41;-1.50;61.80
1878;DHT22;939;51.426;6.972;2024-01-10T03:17:08;-1.60;61.60
1878;DHT22;939;51.426;6.972;2024-01-10T03:19:35;-1.70;62.70
1878;DHT22;939;51.426;6.972;2024-01-10T03:22:08;-1.60;63.00
1878;DHT22;939;51.426;6.972;2024-01-10T03:24:34;-1.60;63.30
1878;DHT22;939;51.426;6.972;2024-01-10T03:27:01;-1.60;62.90
1878;DHT22;939;51.426;6.972;2024-01-10T03:29:30;-1.60;63.10
1878;DHT22;939;51.426;6.972;2024-01-10T03:31:56;-1.60;63.60
1878;DHT22;939;51.426;6.972;2024-01-10T03:34:23;-1.60;63.50
1878;DHT22;939;51.426;6.972;2024-01-10T03:36:50;-1.60;63.50
1878;DHT22;939;51.426;6.972;2024-01-10T03:39:17;-1.60;63.30
1878;DHT22;939;51.426;6.972;2024-01-10T03:41:44;-1.60;64.00
1878;DHT22;939;51.426;6.972;2024-01-10T03:44:10;-1.60;64.40
1878;DHT22;939;51.426;6.972;2024-01-10T03:46:39;-1.70;64.60
1878;DHT22;939;51.426;6.972;2024-01-10T03:49:05;-1.70;65.30
1878;DHT22;939;51.426;6.972;2024-01-10T03:51:33;-1.70;65.10
1878;DHT22;939;51.426;6.972;2024-01-10T03:54:00;-1.80;65.70
1878;DHT22;939;51.426;6.972;2024-01-10T03:56:27;-1.90;66.60
1878;DHT22;939;51.426;6.972;2024-01-10T03:58:53;-1.90;67.00
1878;DHT22;939;51.426;6.972;2024-01-10T04:01:22;-2.00;66.20
1878;DHT22;939;51.426;6.972;2024-01-10T04:03:50;-1.90;66.90
1878;DHT22;939;51.426;6.972;2024-01-10T04:06:17;-2.10;68.40
1878;DHT22;939;51.426;6.972;2024-01-10T04:08:44;-2.00;67.60
1878;DHT22;939;51.426;6.972;2024-01-10T04:11:11;-2.00;66.80
1878;DHT22;939;51.426;6.972;2024-01-10T04:13:38;-1.90;66.80
1878;DHT22;939;51.426;6.972;2024-01-10T04:16:05;-1.80;66.60
1878;DHT22;939;51.426;6.972;2024-01-10T04:18:32;-2.00;68.90
1878;DHT22;939;51.426;6.972;2024-01-10T04:21:00;-2.00;68.10
1878;DHT22;939;51.426;6.972;2024-01-10T04:23:27;-2.20;69.90
1878;DHT22;939;51.426;6.972;2024-01-10T04:25:54;-2.10;69.50
1878;DHT22;939;51.426;6.972;2024-01-10T04:28:23;-2.10;69.10
1878;DHT22;939;51.426;6.972;2024-01-10T04:30:50;-2.10;69.10
1878;DHT22;939;51.426;6.972;2024-01-10T04:33:17;-2.00;68.70
1878;DHT22;939;51.426;6.972;2024-01-10T04:35:44;-2.10;69.40
1878;DHT22;939;51.426;6.972;2024-01-10T04:38:12;-2.10;69.90
1878;DHT22;939;51.426;6.972;2024-01-10T04:40:39;-2.10;69.60
1878;DHT22;939;51.426;6.972;2024-01-10T04:43:06;-2.10;69.30
1878;DHT22;939;51.426;6.972;2024-01-10T04:45:32;-2.10;69.00
1878;DHT22;939;51.426;6.972;2024-01-10T04:47:59;-2.10;69.30
1878;DHT22;939;51.426;6.972;2024-01-10T04:50:26;-2.10;68.60
1878;DHT22;939;51.426;6.972;2024-01-10T04:52:53;-2.10;69.30
1878;DHT22;939;51.426;6.972;2024-01-10T04:55:21;-2.10;68.60
1878;DHT22;939;51.426;6.972;2024-01-10T04:57:48;-2.00;68.80
1878;DHT22;939;51.426;6.972;2024-01-10T05:00:15;-2.00;67.50
1878;DHT22;939;51.426;6.972;2024-01-10T05:02:42;-2.00;67.80
1878;DHT22;939;51.426;6.972;2024-01-10T05:05:09;-2.00;67.40
1878;DHT22;939;51.426;6.972;2024-01-10T05:07:36;-2.00;67.60
1878;DHT22;939;51.426;6.972;2024-01-10T05:10:04;-2.00;68.50
1878;DHT22;939;51.426;6.972;2024-01-10T05:12:32;-2.00;68.10
1878;DHT22;939;51.426;6.972;2024-01-10T05:14:59;-1.90;68.40
1878;DHT22;939;51.426;6.972;2024-01-10T05:17:26;-1.90;69.40
1878;DHT22;939;51.426;6.972;2024-01-10T05:19:53;-1.90;67.60
1878;DHT22;939;51.426;6.972;2024-01-10T05:22:20;-1.90;68.10
1878;DHT22;939;51.426;6.972;2024-01-10T05:24:47;-1.90;67.80
1878;DHT22;939;51.426;6.972;2024-01-10T05:27:14;-2.00;67.30
1878;DHT22;939;51.426;6.972;2024-01-10T05:29:43;-2.00;68.30
1878;DHT22;939;51.426;6.972;2024-01-10T05:32:09;-2.00;68.40
1878;DHT22;939;51.426;6.972;2024-01-10T05:34:36;-2.00;68.50
1878;DHT22;939;51.426;6.972;2024-01-10T05:37:03;-2.00;68.80
1878;DHT22;939;51.426;6.972;2024-01-10T05:39:30;-1.90;68.50
1878;DHT22;939;51.426;6.972;2024-01-10T05:41:57;-1.90;67.20
1878;DHT22;939;51.426;6.972;2024-01-10T05:44:24;-1.90;67.60
1878;DHT22;939;51.426;6.972;2024-01-10T05:46:52;-2.00;67.40
1878;DHT22;939;51.426;6.972;2024-01-10T05:49:19;-1.90;67.30
1878;DHT22;939;51.426;6.972;2024-01-10T05:51:47;-1.90;67.30
1878;DHT22;939;51.426;6.972;2024-01-10T05:54:15;-1.80;67.80
1878;DHT22;939;51.426;6.972;2024-01-10T05:56:43;-1.80;67.80
1878;DHT22;939;51.426;6.972;2024-01-10T05:59:10;-1.80;67.20
1878;DHT22;939;51.426;6.972;2024-01-10T06:01:37;-2.00;68.10
1878;DHT22;939;51.426;6.972;2024-01-10T06:04:06;-2.00;68.80
1878;DHT22;939;51.426;6.972;2024-01-10T06:06:33;-2.00;69.90
1878;DHT22;939;51.426;6.972;2024-01-10T06:09:00;-2.10;69.30
1878;DHT22;939;51.426;6.972;2024-01-10T06:11:27;-2.10;68.50
1878;DHT22;939;51.426;6.972;2024-01-10T06:13:55;-2.00;69.40
1878;DHT22;939;51.426;6.972;2024-01-10T06:16:23;-2.00;69.20
1878;DHT22;939;51.426;6.972;2024-01-10T06:18:49;-1.90;67.80
1878;DHT22;939;51.426;6.972;2024-01-10T06:21:18;-2.10;68.10
1878;DHT22;939;51.426;6.972;2024-01-10T06:23:44;-2.00;68.40
1878;DHT22;939;51.426;6.972;2024-01-10T06:26:12;-1.90;67.90
1878;DHT22;939;51.426;6.972;2024-01-10T06:28:39;-1.90;68.70
1878;DHT22;939;51.426;6.972;2024-01-10T06:31:06;-1.90;68.70
1878;DHT22;939;51.426;6.972;2024-01-10T06:33:33;-1.90;68.40
1878;DHT22;939;51.426;6.972;2024-01-10T06:36:02;-2.20;69.60
1878;DHT22;939;51.426;6.972;2024-01-10T06:38:31;-2.10;70.10
1878;DHT22;939;51.426;6.972;2024-01-10T06:40:57;-2.00;69.20
1878;DHT22;939;51.426;6.972;2024-01-10T06:43:24;-2.00;68.40
1878;DHT22;939;51.426;6.972;2024-01-10T06:45:51;-2.10;68.90
1878;DHT22;939;51.426;6.972;2024-01-10T06:48:18;-2.10;69.90
1878;DHT22;939;51.426;6.972;2024-01-10T06:50:45;-2.00;70.00
1878;DHT22;939;51.426;6.972;2024-01-10T06:53:12;-2.00;70.60
1878;DHT22;939;51.426;6.972;2024-01-10T06:55:40;-2.00;71.60
1878;DHT22;939;51.426;6.972;2024-01-10T06:58:07;-2.10;72.00
1878;DHT22;939;51.426;6.972;2024-01-10T07:00:35;-2.10;70.60
1878;DHT22;939;51.426;6.972;2024-01-10T07:03:04;-2.10;71.10
1878;DHT22;939;51.426;6.972;2024-01-10T07:05:31;-2.00;71.10
1878;DHT22;939;51.426;6.972;2024-01-10T07:07:57;-2.00;70.70
1878;DHT22;939;51.426;6.972;2024-01-10T07:10:24;-2.00;70.20
1878;DHT22;939;51.426;6.972;2024-01-10T07:12:54;-2.10;70.50
1878;DHT22;939;51.426;6.972;2024-01-10T07:15:21;-2.00;70.80
1878;DHT22;939;51.426;6.972;2024-01-10T07:17:48;-2.00;71.00
1878;DHT22;939;51.426;6.972;2024-01-10T07:20:15;-2.00;70.40
1878;DHT22;939;51.426;6.972;2024-01-10T07:22:42;-1.90;70.60
1878;DHT22;939;51.426;6.972;2024-01-10T07:25:09;-1.90;71.10
1878;DHT22;939;51.426;6.972;2024-01-10T07:27:39;-1.90;71.00
1878;DHT22;939;51.426;6.972;2024-01-10T07:30:08;-1.90;70.50
1878;DHT22;939;51.426;6.972;2024-01-10T07:32:39;-1.90;71.20
1878;DHT22;939;51.426;6.972;2024-01-10T07:35:07;-1.90;70.20
1878;DHT22;939;51.426;6.972;2024-01-10T07:37:35;-1.90;70.60
1878;DHT22;939;51.426;6.972;2024-01-10T07:40:03;-2.00;70.90
1878;DHT22;939;51.426;6.972;2024-01-10T07:42:31;-1.90;71.00
1878;DHT22;939;51.426;6.972;2024-01-10T07:44:58;-1.90;70.60
1878;DHT22;939;51.426;6.972;2024-01-10T07:47:26;-1.90;70.30
1878;DHT22;939;51.426;6.972;2024-01-10T07:49:53;-1.90;70.90
1878;DHT22;939;51.426;6.972;2024-01-10T07:52:20;-1.90;71.30
1878;DHT22;939;51.426;6.972;2024-01-10T07:54:47;-1.90;71.90
1878;DHT22;939;51.426;6.972;2024-01-10T07:57:14;-1.90;71.60
1878;DHT22;939;51.426;6.972;2024-01-10T07:59:43;-1.80;71.10
1878;DHT22;939;51.426;6.972;2024-01-10T08:02:11;-1.90;71.90
1878;DHT22;939;51.426;6.972;2024-01-10T08:04:39;-1.80;71.70
1878;DHT22;939;51.426;6.972;2024-01-10T08:07:06;-1.90;72.70
1878;DHT22;939;51.426;6.972;2024-01-10T08:09:33;-1.80;71.40
1878;DHT22;939;51.426;6.972;2024-01-10T08:12:00;-1.80;71.50
1878;DHT22;939;51.426;6.972;2024-01-10T08:14:27;-1.80;70.80
1878;DHT22;939;51.426;6.972;2024-01-10T08:16:54;-1.70;70.80
1878;DHT22;939;51.426;6.972;2024-01-10T08:19:23;-1.80;70.20
1878;DHT22;939;51.426;6.972;2024-01-10T08:21:52;-1.80;70.20
1878;DHT22;939;51.426;6.972;2024-01-10T08:24:19;-1.80;70.00
1878;DHT22;939;51.426;6.972;2024-01-10T08:26:49;-1.70;70.70
1878;DHT22;939;51.426;6.972;2024-01-10T08:29:17;-1.90;71.10
1878;DHT22;939;51.426;6.972;2024-01-10T08:31:44;-1.80;72.60
1878;DHT22;939;51.426;6.972;2024-01-10T08:34:11;-1.80;71.30
1878;DHT22;939;51.426;6.972;2024-01-10T08:36:38;-1.70;71.90
1878;DHT22;939;51.426;6.972;2024-01-10T08:39:06;-1.70;72.00
1878;DHT22;939;51.426;6.972;2024-01-10T08:41:33;-1.80;72.40
1878;DHT22;939;51.426;6.972;2024-01-10T08:44:02;-1.80;70.80
1878;DHT22;939;51.426;6.972;2024-01-10T08:46:29;-1.80;72.40
1878;DHT22;939;51.426;6.972;2024-01-10T08:48:56;-1.80;71.60
1878;DHT22;939;51.426;6.972;2024-01-10T08:51:23;-1.70;71.60
